sensor_id;sensor_type;location;lat;lon;timestamp;pressure;altitude;pressure_sealevel;temperature;humidity
62725;BME280;49026;52.600;4.694;2023-01-20T00:00:24;100985.66;;;-0.89;94.45
62725;BME280;49026;52.600;4.694;2023-01-20T00:02:50;100984.75;;;-0.93;94.45
62725;BME280;49026;52.600;4.694;2023-01-20T00:05:15;100985.63;;;-0.92;94.35
62725;BME280;49026;52.600;4.694;2023-01-20T00:07:40;100982.19;;;-0.93;94.35
62725;BME280;49026;52.600;4.694;2023-01-20T00:10:06;100985.63;;;-0.92;93.62
62725;BME280;49026;52.600;4.694;2023-01-20T00:12:31;100987.41;;;-0.88;93.58
62725;BME280;49026;52.600;4.694;2023-01-20T00:14:57;100990.81;;;-0.89;93.06
62725;BME280;49026;52.600;4.694;2023-01-20T00:17:22;100990.81;;;-0.89;92.53
62725;BME280;49026;52.600;4.694;2023-01-20T00:19:50;100990.81;;;-0.89;91.53
62725;BME280;49026;52.600;4.694;2023-01-20T00:22:15;100990.81;;;-0.89;90.76
62725;BME280;49026;52.600;4.694;2023-01-20T00:24:41;100990.84;;;-0.87;89.69
62725;BME280;49026;52.600;4.694;2023-01-20T00:27:06;100994.28;;;-0.85;89.45
62725;BME280;49026;52.600;4.694;2023-01-20T00:29:31;100994.28;;;-0.87;89.04
62725;BME280;49026;52.600;4.694;2023-01-20T00:31:57;100992.59;;;-0.85;89.34
62725;BME280;49026;52.600;4.694;2023-01-20T00:34:22;100987.47;;;-0.80;90.71
62725;BME280;49026;52.600;4.694;2023-01-20T00:36:50;100987.50;;;-0.76;92.17
62725;BME280;49026;52.600;4.694;2023-01-20T00:39:15;100992.75;;;-0.65;92.87
62725;BME280;49026;52.600;4.694;2023-01-20T00:41:40;100992.78;;;-0.59;93.60
62725;BME280;49026;52.600;4.694;2023-01-20T00:44:06;101000.56;;;-0.56;93.33
62725;BME280;49026;52.600;4.694;2023-01-20T00:46:31;101000.59;;;-0.52;93.04
62725;BME280;49026;52.600;4.694;2023-01-20T00:48:56;101001.47;;;-0.49;92.97
62725;BME280;49026;52.600;4.694;2023-01-20T00:51:22;100989.47;;;-0.44;93.58
62725;BME280;49026;52.600;4.694;2023-01-20T00:53:48;100991.22;;;-0.43;93.25
62725;BME280;49026;52.600;4.694;2023-01-20T00:56:13;100987.78;;;-0.39;93.28
62725;BME280;49026;52.600;4.694;2023-01-20T00:58:41;100995.53;;;-0.37;93.42
62725;BME280;49026;52.600;4.694;2023-01-20T01:01:07;100995.56;;;-0.35;93.95
62725;BME280;49026;52.600;4.694;2023-01-20T01:03:32;100992.97;;;-0.35;93.61
62725;BME280;49026;52.600;4.694;2023-01-20T01:06:24;100991.22;;;-0.40;92.43
62725;BME280;49026;52.600;4.694;2023-01-20T01:08:49;100995.50;;;-0.45;92.24
62725;BME280;49026;52.600;4.694;2023-01-20T01:11:14;101000.63;;;-0.48;91.68
62725;BME280;49026;52.600;4.694;2023-01-20T01:13:40;101008.34;;;-0.52;91.43
62725;BME280;49026;52.600;4.694;2023-01-20T01:16:13;101008.31;;;-0.56;92.37
62725;BME280;49026;52.600;4.694;2023-01-20T01:18:39;101019.50;;;-0.57;92.83
62725;BME280;49026;52.600;4.694;2023-01-20T01:21:11;101021.19;;;-0.60;92.47
62725;BME280;49026;52.600;4.694;2023-01-20T01:23:37;101015.13;;;-0.62;92.31
62725;BME280;49026;52.600;4.694;2023-01-20T01:26:03;101015.09;;;-0.65;92.17
62725;BME280;49026;52.600;4.694;2023-01-20T01:28:28;101018.53;;;-0.68;92.80
62725;BME280;49026;52.600;4.694;2023-01-20T01:31:03;101019.38;;;-0.70;93.45
62725;BME280;49026;52.600;4.694;2023-01-20T01:33:31;101021.94;;;-0.70;93.38
62725;BME280;49026;52.600;4.694;2023-01-20T01:35:58;101024.50;;;-0.72;93.68
62725;BME280;49026;52.600;4.694;2023-01-20T01:38:26;101028.81;;;-0.72;93.49
62725;BME280;49026;52.600;4.694;2023-01-20T01:40:54;101028.81;;;-0.72;93.70
62725;BME280;49026;52.600;4.694;2023-01-20T01:43:35;101033.16;;;-0.70;94.52
62725;BME280;49026;52.600;4.694;2023-01-20T01:46:01;101031.44;;;-0.68;94.47
62725;BME280;49026;52.600;4.694;2023-01-20T01:48:31;101032.34;;;-0.64;94.42
62725;BME280;49026;52.600;4.694;2023-01-20T01:51:02;101034.09;;;-0.60;94.37
62725;BME280;49026;52.600;4.694;2023-01-20T01:53:32;101028.94;;;-0.57;94.71
62725;BME280;49026;52.600;4.694;2023-01-20T01:56:01;101031.59;;;-0.49;95.31
62725;BME280;49026;52.600;4.694;2023-01-20T01:58:32;101029.06;;;-0.45;95.21
62725;BME280;49026;52.600;4.694;2023-01-20T02:01:02;101029.94;;;-0.41;95.53
62725;BME280;49026;52.600;4.694;2023-01-20T02:03:34;101029.97;;;-0.38;95.01
62725;BME280;49026;52.600;4.694;2023-01-20T02:06:02;101031.72;;;-0.34;94.06
62725;BME280;49026;52.600;4.694;2023-01-20T02:08:30;101026.56;;;-0.32;93.43
62725;BME280;49026;52.600;4.694;2023-01-20T02:10:56;101028.31;;;-0.31;92.94
62725;BME280;49026;52.600;4.694;2023-01-20T02:13:21;101024.88;;;-0.29;93.42
62725;BME280;49026;52.600;4.694;2023-01-20T02:16:00;101029.22;;;-0.26;92.23
62725;BME280;49026;52.600;4.694;2023-01-20T02:18:43;101035.28;;;-0.18;92.04
62725;BME280;49026;52.600;4.694;2023-01-20T02:35:52;101046.66;;;0.07;91.21
62725;BME280;49026;52.600;4.694;2023-01-20T02:38:41;101044.06;;;0.07;90.56
62725;BME280;49026;52.600;4.694;2023-01-20T02:41:51;101045.78;;;0.07;90.24
62725;BME280;49026;52.600;4.694;2023-01-20T02:44:37;101046.66;;;0.06;90.07
62725;BME280;49026;52.600;4.694;2023-01-20T02:53:00;101037.94;;;-0.06;92.92
62725;BME280;49026;52.600;4.694;2023-01-20T02:55:33;101031.91;;;-0.09;93.46
62725;BME280;49026;52.600;4.694;2023-01-20T02:58:09;101035.34;;;-0.13;94.22
62725;BME280;49026;52.600;4.694;2023-01-20T03:00:43;101043.06;;;-0.15;94.13
62725;BME280;49026;52.600;4.694;2023-01-20T03:03:16;101031.84;;;-0.17;93.58
62725;BME280;49026;52.600;4.694;2023-01-20T03:05:49;101034.41;;;-0.17;93.25
62725;BME280;49026;52.600;4.694;2023-01-20T03:08:21;101035.28;;;-0.18;92.74
62725;BME280;49026;52.600;4.694;2023-01-20T03:10:49;101030.97;;;-0.19;93.40
62725;BME280;49026;52.600;4.694;2023-01-20T03:13:20;101035.28;;;-0.20;93.58
62725;BME280;49026;52.600;4.694;2023-01-20T03:16:03;101030.94;;;-0.22;94.21
62725;BME280;49026;52.600;4.694;2023-01-20T03:18:30;101031.84;;;-0.22;95.05
62725;BME280;49026;52.600;4.694;2023-01-20T03:20:57;101037.00;;;-0.22;94.79
62725;BME280;49026;52.600;4.694;2023-01-20T03:23:25;101037.00;;;-0.22;94.68
62725;BME280;49026;52.600;4.694;2023-01-20T03:25:52;101043.88;;;-0.21;94.73
62725;BME280;49026;52.600;4.694;2023-01-20T03:28:18;101037.88;;;-0.18;94.92
62725;BME280;49026;52.600;4.694;2023-01-20T03:30:43;101035.28;;;-0.18;95.28
62725;BME280;49026;52.600;4.694;2023-01-20T03:33:09;101039.63;;;-0.14;95.10
62725;BME280;49026;52.600;4.694;2023-01-20T03:35:37;101043.06;;;-0.12;94.16
62725;BME280;49026;52.600;4.694;2023-01-20T03:38:02;101057.75;;;-0.08;93.67
62725;BME280;49026;52.600;4.694;2023-01-20T03:40:30;101062.97;;;-0.02;92.63
62725;BME280;49026;52.600;4.694;2023-01-20T03:43:07;101061.25;;;0.02;91.48
62725;BME280;49026;52.600;4.694;2023-01-20T03:45:41;101068.19;;;0.09;89.63
62725;BME280;49026;52.600;4.694;2023-01-20T03:48:28;101073.41;;;0.14;89.89
62725;BME280;49026;52.600;4.694;2023-01-20T03:53:35;101079.47;;;0.19;87.60
62725;BME280;49026;52.600;4.694;2023-01-20T03:56:08;101072.59;;;0.24;86.92
62725;BME280;49026;52.600;4.694;2023-01-20T03:58:42;101071.75;;;0.28;86.48
62725;BME280;49026;52.600;4.694;2023-01-20T04:01:13;101074.34;;;0.31;86.79
62725;BME280;49026;52.600;4.694;2023-01-20T04:03:42;101054.56;;;0.36;86.48
62725;BME280;49026;52.600;4.694;2023-01-20T04:06:10;101054.59;;;0.43;86.40
62725;BME280;49026;52.600;4.694;2023-01-20T04:08:40;101057.25;;;0.52;85.70
62725;BME280;49026;52.600;4.694;2023-01-20T04:11:07;101051.22;;;0.54;86.06
62725;BME280;49026;52.600;4.694;2023-01-20T04:13:33;101052.06;;;0.57;85.65
62725;BME280;49026;52.600;4.694;2023-01-20T04:16:00;101048.66;;;0.59;84.84
62725;BME280;49026;52.600;4.694;2023-01-20T04:18:26;101056.41;;;0.58;85.79
62725;BME280;49026;52.600;4.694;2023-01-20T04:20:59;101040.03;;;0.57;85.74
62725;BME280;49026;52.600;4.694;2023-01-20T04:23:32;101047.78;;;0.59;85.71
62725;BME280;49026;52.600;4.694;2023-01-20T04:26:03;101053.84;;;0.62;84.97
62725;BME280;49026;52.600;4.694;2023-01-20T04:28:31;101058.16;;;0.69;84.29
62725;BME280;49026;52.600;4.694;2023-01-20T04:30:57;101056.47;;;0.76;84.43
62725;BME280;49026;52.600;4.694;2023-01-20T04:33:22;101054.78;;;0.83;85.02
62725;BME280;49026;52.600;4.694;2023-01-20T04:35:47;101060.84;;;0.91;84.91
62725;BME280;49026;52.600;4.694;2023-01-20T04:38:12;101057.41;;;0.98;83.70
62725;BME280;49026;52.600;4.694;2023-01-20T04:40:38;101062.59;;;1.04;83.43
62725;BME280;49026;52.600;4.694;2023-01-20T04:43:03;101053.13;;;1.09;83.18
62725;BME280;49026;52.600;4.694;2023-01-20T04:45:30;101055.72;;;1.13;83.16
62725;BME280;49026;52.600;4.694;2023-01-20T04:47:56;101054.84;;;1.14;82.88
62725;BME280;49026;52.600;4.694;2023-01-20T04:50:23;101051.41;;;1.15;82.91
62725;BME280;49026;52.600;4.694;2023-01-20T04:52:49;101062.59;;;1.15;82.56
62725;BME280;49026;52.600;4.694;2023-01-20T04:55:20;101058.31;;;1.16;82.97
62725;BME280;49026;52.600;4.694;2023-01-20T04:57:46;101064.34;;;1.18;82.41
62725;BME280;49026;52.600;4.694;2023-01-20T05:00:12;101053.16;;;1.17;82.64
62725;BME280;49026;52.600;4.694;2023-01-20T05:02:42;101056.59;;;1.18;82.72
62725;BME280;49026;52.600;4.694;2023-01-20T05:05:10;101057.44;;;1.18;82.90
62725;BME280;49026;52.600;4.694;2023-01-20T05:07:35;101058.31;;;1.20;82.66
62725;BME280;49026;52.600;4.694;2023-01-20T05:10:04;101072.13;;;1.21;82.65
62725;BME280;49026;52.600;4.694;2023-01-20T05:12:30;101063.50;;;1.23;82.99
62725;BME280;49026;52.600;4.694;2023-01-20T05:14:55;101068.69;;;1.25;83.14
62725;BME280;49026;52.600;4.694;2023-01-20T05:17:20;101061.78;;;1.24;83.51
62725;BME280;49026;52.600;4.694;2023-01-20T05:19:46;101066.06;;;1.22;83.54
62725;BME280;49026;52.600;4.694;2023-01-20T05:22:13;101065.22;;;1.21;83.33
62725;BME280;49026;52.600;4.694;2023-01-20T05:24:38;101073.88;;;1.19;82.70
62725;BME280;49026;52.600;4.694;2023-01-20T05:27:04;101060.91;;;1.13;83.15
62725;BME280;49026;52.600;4.694;2023-01-20T05:29:29;101062.63;;;1.09;82.79
62725;BME280;49026;52.600;4.694;2023-01-20T05:31:54;101060.00;;;1.04;83.11
62725;BME280;49026;52.600;4.694;2023-01-20T05:34:35;101060.84;;;1.00;83.52
62725;BME280;49026;52.600;4.694;2023-01-20T05:37:00;101054.78;;;0.93;85.02
62725;BME280;49026;52.600;4.694;2023-01-20T05:39:25;101053.94;;;0.91;84.65
62725;BME280;49026;52.600;4.694;2023-01-20T05:41:51;101060.00;;;0.92;84.78
62725;BME280;49026;52.600;4.694;2023-01-20T05:44:16;101060.84;;;0.91;85.38
62725;BME280;49026;52.600;4.694;2023-01-20T05:46:41;101061.69;;;0.91;86.67
62725;BME280;49026;52.600;4.694;2023-01-20T05:49:09;101060.81;;;0.88;85.64
62725;BME280;49026;52.600;4.694;2023-01-20T05:51:34;101065.97;;;0.86;85.58
62725;BME280;49026;52.600;4.694;2023-01-20T05:54:00;101072.03;;;0.85;85.84
62725;BME280;49026;52.600;4.694;2023-01-20T05:56:25;101081.50;;;0.85;86.30
62725;BME280;49026;52.600;4.694;2023-01-20T05:58:54;101079.78;;;0.87;86.17
62725;BME280;49026;52.600;4.694;2023-01-20T06:01:20;101081.53;;;0.88;86.09
62725;BME280;49026;52.600;4.694;2023-01-20T06:03:46;101082.38;;;0.87;85.91
62725;BME280;49026;52.600;4.694;2023-01-20T06:06:11;101083.25;;;0.84;86.80
62725;BME280;49026;52.600;4.694;2023-01-20T06:08:45;101078.03;;;0.80;87.30
62725;BME280;49026;52.600;4.694;2023-01-20T06:11:13;101082.34;;;0.78;87.00
62725;BME280;49026;52.600;4.694;2023-01-20T06:13:39;101084.94;;;0.76;86.98
62725;BME280;49026;52.600;4.694;2023-01-20T06:16:05;101075.41;;;0.73;86.54
62725;BME280;49026;52.600;4.694;2023-01-20T06:18:32;101075.44;;;0.72;87.21
62725;BME280;49026;52.600;4.694;2023-01-20T06:20:57;101084.03;;;0.68;88.22
62725;BME280;49026;52.600;4.694;2023-01-20T06:23:25;101084.00;;;0.66;88.03
62725;BME280;49026;52.600;4.694;2023-01-20T06:26:05;101080.56;;;0.64;87.92
62725;BME280;49026;52.600;4.694;2023-01-20T06:28:31;101076.25;;;0.63;88.95
62725;BME280;49026;52.600;4.694;2023-01-20T06:31:05;101065.88;;;0.60;90.21
62725;BME280;49026;52.600;4.694;2023-01-20T06:33:33;101067.59;;;0.58;90.56
62725;BME280;49026;52.600;4.694;2023-01-20T06:35:59;101075.34;;;0.55;90.92
62725;BME280;49026;52.600;4.694;2023-01-20T06:38:30;101081.38;;;0.54;90.66
62725;BME280;49026;52.600;4.694;2023-01-20T06:41:01;101075.34;;;0.55;90.22
62725;BME280;49026;52.600;4.694;2023-01-20T06:43:28;101077.91;;;0.55;90.69
62725;BME280;49026;52.600;4.694;2023-01-20T06:46:01;101077.06;;;0.53;91.44
62725;BME280;49026;52.600;4.694;2023-01-20T06:48:26;101074.47;;;0.53;92.10
62725;BME280;49026;52.600;4.694;2023-01-20T06:53:49;101088.25;;;0.49;93.85
62725;BME280;49026;52.600;4.694;2023-01-20T06:56:14;101093.44;;;0.49;93.91
62725;BME280;49026;52.600;4.694;2023-01-20T06:58:43;101084.78;;;0.50;93.63
62725;BME280;49026;52.600;4.694;2023-01-20T07:01:11;101089.09;;;0.49;94.31
62725;BME280;49026;52.600;4.694;2023-01-20T07:03:40;101097.72;;;0.50;94.43
62725;BME280;49026;52.600;4.694;2023-01-20T07:06:14;101090.81;;;0.47;95.08
62725;BME280;49026;52.600;4.694;2023-01-20T07:08:43;101102.03;;;0.48;95.70
62725;BME280;49026;52.600;4.694;2023-01-20T07:11:09;101104.63;;;0.48;95.43
62725;BME280;49026;52.600;4.694;2023-01-20T07:13:34;101099.44;;;0.49;95.67
62725;BME280;49026;52.600;4.694;2023-01-20T07:15:59;101091.69;;;0.48;96.24
62725;BME280;49026;52.600;4.694;2023-01-20T07:18:25;101095.13;;;0.47;97.30
62725;BME280;49026;52.600;4.694;2023-01-20T07:20:54;101085.66;;;0.47;97.05
62725;BME280;49026;52.600;4.694;2023-01-20T07:23:20;101096.84;;;0.48;97.53
62725;BME280;49026;52.600;4.694;2023-01-20T07:25:45;101098.59;;;0.49;96.98
62725;BME280;49026;52.600;4.694;2023-01-20T07:28:11;101094.28;;;0.48;97.57
62725;BME280;49026;52.600;4.694;2023-01-20T07:30:36;101101.19;;;0.49;98.11
62725;BME280;49026;52.600;4.694;2023-01-20T07:33:01;101104.63;;;0.49;98.22
62725;BME280;49026;52.600;4.694;2023-01-20T07:35:30;101111.50;;;0.47;97.97
62725;BME280;49026;52.600;4.694;2023-01-20T07:37:57;101108.91;;;0.46;98.47
62725;BME280;49026;52.600;4.694;2023-01-20T07:40:23;101120.97;;;0.44;98.76
62725;BME280;49026;52.600;4.694;2023-01-20T07:42:48;101138.19;;;0.43;99.12
62725;BME280;49026;52.600;4.694;2023-01-20T07:45:15;101144.25;;;0.44;99.17
62725;BME280;49026;52.600;4.694;2023-01-20T07:47:41;101149.41;;;0.41;99.41
62725;BME280;49026;52.600;4.694;2023-01-20T07:50:09;101151.97;;;0.41;99.30
62725;BME280;49026;52.600;4.694;2023-01-20T07:52:34;101167.44;;;0.34;99.64
62725;BME280;49026;52.600;4.694;2023-01-20T07:55:00;101174.31;;;0.32;99.34
62725;BME280;49026;52.600;4.694;2023-01-20T07:57:25;101181.22;;;0.30;99.54
62725;BME280;49026;52.600;4.694;2023-01-20T07:59:52;101172.53;;;0.27;98.92
62725;BME280;49026;52.600;4.694;2023-01-20T08:02:17;101178.53;;;0.21;98.98
62725;BME280;49026;52.600;4.694;2023-01-20T08:04:42;101175.88;;;0.10;99.25
62725;BME280;49026;52.600;4.694;2023-01-20T08:07:08;101181.03;;;0.07;99.27
62725;BME280;49026;52.600;4.694;2023-01-20T08:09:33;101180.97;;;0.03;99.56
62725;BME280;49026;52.600;4.694;2023-01-20T08:11:58;101183.50;;;-0.02;99.30
62725;BME280;49026;52.600;4.694;2023-01-20T08:14:23;101189.53;;;-0.05;99.27
62725;BME280;49026;52.600;4.694;2023-01-20T08:16:49;101190.34;;;-0.09;99.58
62725;BME280;49026;52.600;4.694;2023-01-20T08:19:14;101193.75;;;-0.13;100.00
62725;BME280;49026;52.600;4.694;2023-01-20T08:21:41;101192.03;;;-0.12;100.00
62725;BME280;49026;52.600;4.694;2023-01-20T08:24:09;101192.06;;;-0.11;100.00
62725;BME280;49026;52.600;4.694;2023-01-20T08:26:34;101198.09;;;-0.09;100.00
62725;BME280;49026;52.600;4.694;2023-01-20T08:29:02;101199.84;;;-0.06;100.00
62725;BME280;49026;52.600;4.694;2023-01-20T08:31:28;101195.56;;;-0.04;100.00
62725;BME280;49026;52.600;4.694;2023-01-20T08:33:54;101208.50;;;-0.03;100.00
62725;BME280;49026;52.600;4.694;2023-01-20T08:36:26;101205.09;;;0.00;100.00
62725;BME280;49026;52.600;4.694;2023-01-20T08:38:54;101202.50;;;0.05;100.00
62725;BME280;49026;52.600;4.694;2023-01-20T08:41:23;101218.94;;;0.10;100.00
62725;BME280;49026;52.600;4.694;2023-01-20T08:43:49;101213.81;;;0.16;100.00
62725;BME280;49026;52.600;4.694;2023-01-20T08:46:15;101214.72;;;0.20;100.00
62725;BME280;49026;52.600;4.694;2023-01-20T08:48:44;101217.34;;;0.24;100.00
62725;BME280;49026;52.600;4.694;2023-01-20T08:51:13;101223.41;;;0.29;100.00
62725;BME280;49026;52.600;4.694;2023-01-20T08:53:40;101218.28;;;0.34;100.00
62725;BME280;49026;52.600;4.694;2023-01-20T08:56:06;101225.19;;;0.38;100.00
62725;BME280;49026;52.600;4.694;2023-01-20T08:58:32;101233.84;;;0.43;100.00
62725;BME280;49026;52.600;4.694;2023-01-20T09:00:58;101233.00;;;0.44;100.00
62725;BME280;49026;52.600;4.694;2023-01-20T09:03:23;101231.31;;;0.48;100.00
62725;BME280;49026;52.600;4.694;2023-01-20T09:05:51;101236.53;;;0.52;100.00
62725;BME280;49026;52.600;4.694;2023-01-20T09:08:18;101239.97;;;0.53;100.00
62725;BME280;49026;52.600;4.694;2023-01-20T09:10:44;101234.81;;;0.56;100.00
62725;BME280;49026;52.600;4.694;2023-01-20T09:13:09;101237.44;;;0.61;100.00
62725;BME280;49026;52.600;4.694;2023-01-20T09:15:37;101230.59;;;0.66;100.00
62725;BME280;49026;52.600;4.694;2023-01-20T09:18:04;101236.66;;;0.69;100.00
62725;BME280;49026;52.600;4.694;2023-01-20T09:20:29;101236.66;;;0.72;100.00
62725;BME280;49026;52.600;4.694;2023-01-20T09:23:00;101236.69;;;0.76;100.00
62725;BME280;49026;52.600;4.694;2023-01-20T09:25:25;101234.13;;;0.79;100.00
62725;BME280;49026;52.600;4.694;2023-01-20T09:27:51;101235.00;;;0.81;100.00
62725;BME280;49026;52.600;4.694;2023-01-20T09:30:16;101236.72;;;0.82;100.00
62725;BME280;49026;52.600;4.694;2023-01-20T09:32:41;101239.31;;;0.83;100.00
62725;BME280;49026;52.600;4.694;2023-01-20T09:35:07;101238.47;;;0.84;100.00
62725;BME280;49026;52.600;4.694;2023-01-20T09:37:32;101243.66;;;0.87;100.00
62725;BME280;49026;52.600;4.694;2023-01-20T09:40:25;101238.53;;;0.95;99.94
62725;BME280;49026;52.600;4.694;2023-01-20T09:46:20;101250.66;;;1.08;100.00
62725;BME280;49026;52.600;4.694;2023-01-20T09:49:30;101248.19;;;1.24;100.00
62725;BME280;49026;52.600;4.694;2023-01-20T09:52:30;101247.47;;;1.59;100.00
62725;BME280;49026;52.600;4.694;2023-01-20T09:55:22;101248.34;;;1.70;100.00
62725;BME280;49026;52.600;4.694;2023-01-20T09:57:56;101248.34;;;1.67;99.76
62725;BME280;49026;52.600;4.694;2023-01-20T10:00:25;101257.88;;;1.74;99.15
62725;BME280;49026;52.600;4.694;2023-01-20T10:02:59;101264.81;;;1.84;99.10
62725;BME280;49026;52.600;4.694;2023-01-20T10:05:32;101257.06;;;1.91;99.21
62725;BME280;49026;52.600;4.694;2023-01-20T10:08:06;101257.94;;;1.96;98.46
62725;BME280;49026;52.600;4.694;2023-01-20T10:10:42;101253.63;;;2.06;99.48
62725;BME280;49026;52.600;4.694;2023-01-20T10:13:31;101257.09;;;2.18;99.67
62725;BME280;49026;52.600;4.694;2023-01-20T10:15:55;101264.88;;;2.23;99.38
62725;BME280;49026;52.600;4.694;2023-01-20T10:18:38;101264.88;;;2.26;98.74
62725;BME280;49026;52.600;4.694;2023-01-20T10:21:15;101268.34;;;2.30;98.97
62725;BME280;49026;52.600;4.694;2023-01-20T10:23:47;101267.47;;;2.28;98.15
62725;BME280;49026;52.600;4.694;2023-01-20T10:26:27;101268.34;;;2.16;98.58
62725;BME280;49026;52.600;4.694;2023-01-20T10:29:02;101270.03;;;2.03;98.23
62725;BME280;49026;52.600;4.694;2023-01-20T10:31:32;101257.91;;;1.93;99.09
62725;BME280;49026;52.600;4.694;2023-01-20T10:34:09;101263.06;;;1.87;98.59
62725;BME280;49026;52.600;4.694;2023-01-20T10:36:39;101262.19;;;1.81;99.58
62725;BME280;49026;52.600;4.694;2023-01-20T10:42:15;101262.19;;;1.77;99.34
62725;BME280;49026;52.600;4.694;2023-01-20T10:44:41;101263.91;;;1.76;99.41
62725;BME280;49026;52.600;4.694;2023-01-20T10:52:58;101257.00;;;1.69;100.00
62725;BME280;49026;52.600;4.694;2023-01-20T11:00:59;101257.84;;;1.71;100.00
62725;BME280;49026;52.600;4.694;2023-01-20T11:03:26;101267.38;;;1.72;100.00
62725;BME280;49026;52.600;4.694;2023-01-20T11:05:53;101271.69;;;1.73;100.00
62725;BME280;49026;52.600;4.694;2023-01-20T11:08:23;101269.97;;;1.71;100.00
62725;BME280;49026;52.600;4.694;2023-01-20T11:10:52;101271.66;;;1.67;100.00
62725;BME280;49026;52.600;4.694;2023-01-20T11:13:18;101281.16;;;1.70;100.00
62725;BME280;49026;52.600;4.694;2023-01-20T11:15:46;101288.06;;;1.74;100.00
62725;BME280;49026;52.600;4.694;2023-01-20T11:20:51;101276.91;;;1.82;100.00
62725;BME280;49026;52.600;4.694;2023-01-20T11:26:05;101276.91;;;1.85;100.00
62725;BME280;49026;52.600;4.694;2023-01-20T11:28:53;101277.75;;;1.81;100.00
62725;BME280;49026;52.600;4.694;2023-01-20T11:31:20;101277.75;;;1.81;100.00
62725;BME280;49026;52.600;4.694;2023-01-20T11:33:57;101276.91;;;1.84;100.00
62725;BME280;49026;52.600;4.694;2023-01-20T11:36:23;101286.41;;;1.90;100.00
62725;BME280;49026;52.600;4.694;2023-01-20T11:38:53;101290.72;;;1.94;100.00
62725;BME280;49026;52.600;4.694;2023-01-20T11:41:27;101293.34;;;1.97;100.00
62725;BME280;49026;52.600;4.694;2023-01-20T11:43:57;101298.53;;;1.98;100.00
62725;BME280;49026;52.600;4.694;2023-01-20T11:46:35;101303.69;;;1.95;100.00
62725;BME280;49026;52.600;4.694;2023-01-20T11:51:53;101311.47;;;1.91;100.00
62725;BME280;49026;52.600;4.694;2023-01-20T11:54:26;101321.84;;;1.88;100.00
62725;BME280;49026;52.600;4.694;2023-01-20T11:56:58;101319.22;;;1.80;100.00
62725;BME280;49026;52.600;4.694;2023-01-20T11:59:29;101325.22;;;1.71;100.00
62725;BME280;49026;52.600;4.694;2023-01-20T12:02:19;101316.56;;;1.66;99.89
62725;BME280;49026;52.600;4.694;2023-01-20T12:05:17;101320.81;;;1.55;100.00
62725;BME280;49026;52.600;4.694;2023-01-20T12:07:48;101325.97;;;1.50;99.92
62725;BME280;49026;52.600;4.694;2023-01-20T12:10:19;101330.31;;;1.50;100.00
62725;BME280;49026;52.600;4.694;2023-01-20T12:12:56;101333.78;;;1.55;99.77
62725;BME280;49026;52.600;4.694;2023-01-20T12:15:31;101326.88;;;1.57;99.86
62725;BME280;49026;52.600;4.694;2023-01-20T12:18:22;101332.94;;;1.60;99.39
62725;BME280;49026;52.600;4.694;2023-01-20T12:21:19;101339.00;;;1.61;99.66
62725;BME280;49026;52.600;4.694;2023-01-20T12:24:11;101339.88;;;1.63;99.57
62725;BME280;49026;52.600;4.694;2023-01-20T12:26:34;101345.06;;;1.66;98.67
62725;BME280;49026;52.600;4.694;2023-01-20T12:31:28;101350.28;;;1.71;97.95
62725;BME280;49026;52.600;4.694;2023-01-20T12:33:58;101358.03;;;1.69;98.46
62725;BME280;49026;52.600;4.694;2023-01-20T12:36:37;101355.41;;;1.64;98.71
62725;BME280;49026;52.600;4.694;2023-01-20T12:42:13;101367.44;;;1.52;99.68
62725;BME280;49026;52.600;4.694;2023-01-20T12:44:58;101370.88;;;1.47;98.97
62725;BME280;49026;52.600;4.694;2023-01-20T12:47:32;101372.56;;;1.47;99.92
62725;BME280;49026;52.600;4.694;2023-01-20T12:55:25;101371.78;;;1.60;100.00
62725;BME280;49026;52.600;4.694;2023-01-20T12:58:02;101380.47;;;1.64;100.00
62725;BME280;49026;52.600;4.694;2023-01-20T13:03:31;101384.84;;;1.76;100.00
62725;BME280;49026;52.600;4.694;2023-01-20T13:08:40;101392.66;;;1.85;99.96
62725;BME280;49026;52.600;4.694;2023-01-20T13:14:03;101400.47;;;1.93;99.60
62725;BME280;49026;52.600;4.694;2023-01-20T13:16:49;101408.25;;;1.96;99.91
62725;BME280;49026;52.600;4.694;2023-01-20T13:21:52;101410.00;;;2.00;98.57
62725;BME280;49026;52.600;4.694;2023-01-20T13:24:18;101405.66;;;2.00;99.25
62725;BME280;49026;52.600;4.694;2023-01-20T13:26:56;101406.53;;;1.95;98.89
62725;BME280;49026;52.600;4.694;2023-01-20T13:29:41;101411.66;;;1.89;98.43
62725;BME280;49026;52.600;4.694;2023-01-20T13:32:31;101421.13;;;1.82;98.26
62725;BME280;49026;52.600;4.694;2023-01-20T13:34:56;101426.31;;;1.76;98.34
62725;BME280;49026;52.600;4.694;2023-01-20T13:37:27;101433.19;;;1.71;97.66
62725;BME280;49026;52.600;4.694;2023-01-20T13:39:57;101432.28;;;1.67;97.92
62725;BME280;49026;52.600;4.694;2023-01-20T13:50:37;101445.19;;;1.58;98.72
62725;BME280;49026;52.600;4.694;2023-01-20T13:53:27;101452.13;;;1.59;98.76
62725;BME280;49026;52.600;4.694;2023-01-20T13:55:55;101461.59;;;1.60;99.69
62725;BME280;49026;52.600;4.694;2023-01-20T13:58:31;101452.13;;;1.59;99.79
62725;BME280;49026;52.600;4.694;2023-01-20T14:01:01;101458.16;;;1.61;100.00
62725;BME280;49026;52.600;4.694;2023-01-20T14:03:35;101471.97;;;1.60;99.91
62725;BME280;49026;52.600;4.694;2023-01-20T14:06:06;101474.53;;;1.52;100.00
62725;BME280;49026;52.600;4.694;2023-01-20T14:08:45;101474.41;;;1.41;100.00
62725;BME280;49026;52.600;4.694;2023-01-20T14:11:25;101478.72;;;1.39;100.00
62725;BME280;49026;52.600;4.694;2023-01-20T14:14:03;101487.34;;;1.38;100.00
62725;BME280;49026;52.600;4.694;2023-01-20T14:19:04;101503.75;;;1.37;100.00
62725;BME280;49026;52.600;4.694;2023-01-20T14:21:40;101516.72;;;1.39;100.00
62725;BME280;49026;52.600;4.694;2023-01-20T14:24:24;101518.41;;;1.38;100.00
62725;BME280;49026;52.600;4.694;2023-01-20T14:27:17;101533.97;;;1.40;100.00
62725;BME280;49026;52.600;4.694;2023-01-20T14:29:52;101544.31;;;1.40;100.00
62725;BME280;49026;52.600;4.694;2023-01-20T14:32:31;101561.59;;;1.39;100.00
62725;BME280;49026;52.600;4.694;2023-01-20T14:34:58;101567.59;;;1.37;100.00